Whale Point, California Weather observations

Data are for observation ending at time listed.
 Day   Time    Ave.   Ave.  Ave.  Vector   Max.   Stn.    Total    Solar   Ave.  
  of    of     Air    Rel.  Wind   Wind    Wind   Baro.  Precip.   Rad.    Soil  
Year   Day     Temp.  Hum.  Speed  Dir.    Gust   Pres.                    Temp. 
2014   (PST)    F      %     mph   deg.    mph     mb.     in.     W/m2     F   
------------------------------------------------------------------------------
 204    9:40   66.1    68    4.6   200      6.6   999.0    0.00     872    73.8
 204    9:50   66.4    66    3.6   200      6.1   999.0    0.00     902    73.8
 204   10:00   67.8    58    3.6   224      5.9   999.0    0.00     916    73.8
 204   10:10   68.4    58    2.9   233      5.8   999.0    0.00     932    73.8
 204   10:20   67.6    60    3.9   237      7.9   999.0    0.00     938    73.9
 204   10:30   68.3    62    3.1   232      6.8   999.0    0.00     964    73.9
 204   10:40   68.4    64    3.6   258      7.7   999.0    0.00     967    73.9
 204   10:50   68.9    63    3.5   236      7.7   999.0    0.00     982    74.0
 204   11:00   68.8    64    6.0   220      9.3   998.6    0.00     967    74.0
 204   11:10   68.0    68    4.0   214      7.8   998.6    0.00     996    74.1
 204   11:20   69.5    66    4.4   214      7.7   998.6    0.00    1016    74.2
 204   11:30   69.9    65    3.5   223      9.7   998.6    0.00    1023    74.2
 204   11:40   70.3    65    3.9   225      7.7   998.6    0.00    1029    74.3
 204   11:50   70.7    65    3.9   228      8.2   998.3    0.00    1034    74.4
 204   12:00   70.1    67    5.1   236      8.8   998.3    0.00    1037    74.4
 204   12:10   69.6    68    6.1   223      9.8   998.3    0.00    1039    74.6
 204   12:20   70.4    66    5.2   217      8.7   998.3    0.00    1038    74.6
 204   12:30   69.9    67    5.7   212      9.6   998.0    0.00    1036    74.8
 204   12:40   70.0    67    6.1   214      9.3   998.0    0.00    1032    74.9
 204   12:50   70.5    66    5.2   230      8.8   998.0    0.00    1027    75.0
 204   13:00   70.8    66    5.9   226      9.7   998.0    0.00    1019    75.1
 204   13:10   70.6    66    5.0   222     10.5   998.0    0.00    1008    75.3
 204   13:20   71.0    65    6.0   257     11.3   998.0    0.00     997    75.4
 204   13:30   71.2    65    5.8   257     10.1   998.0    0.00     985    75.6
 204   13:40   69.8    68    6.5   258     10.8   998.0    0.00     971    75.7
 204   13:50   70.2    67    6.4   261     10.6   998.0    0.00     956    75.9
 204   14:00   69.5    70    7.1   260     12.5   997.6    0.00     940    76.1
 204   14:10   69.5    70    6.9   264     11.7   997.6    0.00     923    76.3
 204   14:20   69.8    70    6.3   270     12.8   997.6    0.00     904    76.5
 204   14:30   69.2    72    7.0   261     10.9   997.3    0.00     884    76.7
 204   14:40   70.2    70    5.8   269     13.4   997.3    0.00     862    76.8
 204   14:50   70.0    71    5.8   264     11.3   997.0    0.00     839    77.0
 204   15:00   69.9    71    5.7   263     13.2   997.0    0.00     815    77.2
 204   15:10   69.1    73    6.8   262     12.3   996.6    0.00     789    77.4
 204   15:20   70.1    70    6.3   259     13.8   996.6    0.00     762    77.6
 204   15:30   71.0    68    5.5   271     11.1   996.6    0.00     735    77.8
 204   15:40   71.8    66    6.0   278     11.5   996.6    0.00     706    77.9
 204   15:50   70.0    72    5.8   286     15.6   996.3    0.00     676    78.1
 204   16:00   70.7    71    5.0   277     11.7   996.3    0.00     645    78.3
 204   16:10   70.2    71    5.8   274     13.4   996.3    0.00     613    78.5
 204   16:20   70.6    71    5.7   259     11.0   995.9    0.00     579    78.6
 204   16:30   70.5    71    5.4   265     12.3   995.9    0.00     545    78.8
 204   16:40   69.6    73    5.3   280     13.4   995.9    0.00     422    78.9
 204   16:50   70.8    70    4.6   275     10.2   995.6    0.00      45    79.1
 204   17:00   70.1    72    4.6   264      9.2   995.6    0.00      42    79.2
 204   17:10   69.6    73    5.4   268     12.4   995.6    0.00     211    79.4
 204   17:20   68.6    75    5.5   266     11.5   995.6    0.00     373    79.5
 204   17:30   67.4    78    4.0   274      8.5   995.6    0.00     341    79.6
 204   17:40   67.2    79    4.3   252      9.1   995.6    0.00     287    79.8
 204   17:50   67.9    76    3.3   264      9.5   995.3    0.00     261    79.8
 204   18:00   67.5    77    3.9   246      7.6   995.3    0.00     225    80.0
 204   18:10   67.6    76    2.8   268      6.9   995.3    0.00     124    80.1
 204   18:20   66.1    80    2.8   263      5.6   994.9    0.00     138    80.2
 204   18:30   65.7    81    3.3   244      6.3   994.9    0.00     120    80.3
 204   18:40   65.0    82    2.8   232      5.0   994.6    0.00      70    80.3
 204   18:50   65.0    82    3.0   223      4.7   994.6    0.00      70    80.4
 204   19:00   64.5    83    2.3   219      4.8   994.6    0.00      41    80.5
 204   19:10   63.6    85    1.9   223      3.4   994.6    0.00      11    80.6
 204   19:20   63.0    86    1.5   207      3.6   994.6    0.00       5    80.6
 204   19:30   62.7    87    1.0    38      2.5   994.2    0.00       2    80.7
 204   19:40   62.6    87    1.7   190      4.7   994.2    0.00       1    80.7
 204   19:50   62.3    88    1.5   197      4.3   994.2    0.00       0    80.8
 204   20:00   62.0    89    0.9   164      2.8   994.2    0.00       0    80.8
 204   20:10   62.0    88    1.0    90      3.1   994.2    0.00       0    80.8
 204   20:20   61.9    88    0.5   151      1.7   994.2    0.00       0    80.8
 204   20:30   61.7    88    1.3   157      4.1   994.2    0.00       0    80.8
 204   20:40   61.7    88    1.8    62      4.5   994.2    0.00       0    80.7
 204   20:50   61.8    89    2.4   174      5.3   994.2    0.00       0    80.7
 204   21:00   61.7    88    1.2    24      3.8   994.2    0.00       0    80.7
 204   21:10   61.4    89    1.3   154      2.4   994.2    0.00       0    80.6
 204   21:20   61.5    89    1.6   182      3.9   994.2    0.00       0    80.5
 204   21:30   61.3    89    0.7    12      1.8   994.2    0.00       0    80.5
 204   21:40   61.3    89    0.5   189      1.3   994.2    0.00       0    80.4
 204   21:50   61.1    89    0.7   144      1.3   994.2    0.00       0    80.4
 204   22:00   61.1    89    2.1    60      3.9   993.9    0.00       0    80.3
 204   22:10   61.1    89    1.5   183      3.2   993.9    0.00       0    80.3
 204   22:20   60.8    90    1.1    29      2.5   993.9    0.00       0    80.2
 204   22:30   60.5    89    2.1   169      3.9   993.9    0.00       0    80.1
 204   22:40   60.7    90    1.3   188      2.8   993.9    0.00       0    80.0
 204   22:50   60.6    90    0.8   166      2.6   993.9    0.00       0    80.0
 204   23:00   60.7    91    0.5   323      2.3   993.9    0.00       0    79.9
 204   23:10   60.6    90    0.6    30      2.3   993.9    0.00       0    79.8
 204   23:20   60.9    90    1.6   150      3.7   994.2    0.00       0    79.7
 204   23:30   61.1    88    2.6    21      3.9   993.9    0.00       0    79.6
 204   23:40   62.0    85    1.1   230      3.9   994.2    0.00       0    79.5
 204   23:50   63.4    79    1.1   151      2.9   993.9    0.00       0    79.4
 205    0:00   63.2    79    1.5    25      5.2   993.9    0.00       0    79.4
 205    0:10   64.4    76    1.0    50      3.0   993.9    0.00       0    79.3
 205    0:20   63.8    77    2.1   166      4.1   993.9    0.00       0    79.2
 205    0:30   62.3    83    0.6   166      1.7   993.9    0.00       0    79.1
 205    0:40   61.6    85    0.8    32      2.9   993.9    0.00       0    79.0
 205    0:50   61.8    84    0.9    43      2.7   993.9    0.00       0    78.9
 205    1:00   63.3    77    1.5   154      3.7   993.9    0.00       0    78.8
 205    1:10   65.9    71    1.3    48      3.3   993.9    0.00       0    78.7
 205    1:20   66.3    69    0.7    50      2.4   993.9    0.00       0    78.6
 205    1:30   66.7    67    0.5   187      1.7   993.9    0.00       0    78.5
 205    1:40   66.7    66    1.7   167      3.9   993.9    0.00       0    78.4
 205    1:50   62.7    81    2.2   174      3.4   993.9    0.00       0    78.3
 205    2:00   61.9    84    1.3   126      2.8   993.9    0.00       0    78.3
 205    2:10   65.3    68    1.7    74      3.7   993.9    0.00       0    78.2
 205    2:20   69.5    53    0.8   101      2.6   993.6    0.00       0    78.1
 205    2:30   66.0    68    2.5   180      4.2   993.6    0.00       0    78.0
 205    2:40   61.8    82    1.6   189      3.6   993.6    0.00       0    77.9
 205    2:50   60.8    86    0.6   128      2.9   993.6    0.00       0    77.8
 205    3:00   61.0    83    1.2   152      3.2   993.6    0.00       0    77.7
 205    3:10   61.3    83    1.7   158      3.4   993.6    0.00       0    77.6
 205    3:20   62.4    76    0.7   152      2.6   993.2    0.00       0    77.6
 205    3:30   62.8    76    1.4   188      3.0   993.2    0.00       0    77.5
 205    3:40   61.8    81    1.4    36      3.0   993.2    0.00       0    77.4
 205    3:50   62.0    79    1.5    52      3.7   993.2    0.00       0    77.3
 205    4:00   64.3    68    1.8    73      4.9   993.2    0.00       0    77.2
 205    4:10   62.0    81    1.3   187      3.1   993.2    0.00       0    77.1
 205    4:20   60.7    86    1.1   120      2.4   993.2    0.00       0    77.1
 205    4:30   60.7    83    1.4    14      4.0   993.6    0.00       0    77.0
 205    4:40   61.7    75    1.3   142      3.4   993.6    0.00       0    76.9
 205    4:50   64.9    65    1.0   102      2.3   993.6    0.00       0    76.8
 205    5:00   63.3    73    1.1   163      3.5   993.6    0.00       1    76.7
 205    5:10   61.9    74    1.0    44      2.8   993.6    0.00       4    76.6
 205    5:20   63.0    72    0.9   221      2.3   993.6    0.00       6    76.6
 205    5:30   61.2    81    0.4    62      1.2   993.6    0.00       9    76.5
 205    5:40   60.5    83    0.5   313      1.7   993.6    0.00      11    76.4
 205    5:50   60.0    84    0.5   180      2.1   993.6    0.00      13    76.3
 205    6:00   59.7    87    0.8    53      2.3   993.6    0.00      15    76.2
 205    6:10   59.3    89    1.1     5      2.2   993.6    0.00      17    76.2
 205    6:20   59.1    89    1.0   170      2.3   993.6    0.00      18    76.1
 205    6:30   59.7    88    0.6   174      2.3   993.6    0.00      19    76.0
 205    6:40   60.6    85    1.5   167      4.8   993.6    0.00      20    75.9
 205    6:50   60.9    84    1.0   143      4.4   993.6    0.00      21    75.8
 205    7:00   61.1    84    0.6   307      2.1   993.6    0.00      23    75.8
 205    7:10   61.0    85    0.5   322      1.6   993.9    0.00     233    75.7
 205    7:20   62.5    83    1.0    10      2.4   993.6    0.00     429    75.5
 205    7:30   63.2    80    1.3   208      2.9   993.9    0.00     474    75.4
 205    7:40   62.8    82    2.7   198      4.7   993.9    0.00     508    75.3
 205    7:50   62.8    83    1.4   199      4.2   993.9    0.00     540    75.3
 205    8:00   63.5    82    0.7   211      2.3   993.9    0.00     572    75.2
 205    8:10   62.8    83    2.1   203      3.9   993.9    0.00     602    75.1
 205    8:20   62.2    85    2.9   198      5.0   993.9    0.00     635    75.1
 205    8:30   61.7    86    4.0   194      6.1   993.9    0.00     665    75.0
 205    8:40   61.4    86    4.1   202      6.9   993.9    0.00     695    75.0
 205    8:50   61.1    87    4.4   202      6.5   993.6    0.00     725    75.0
 205    9:00   61.0    87    4.1   208      7.5   993.6    0.00     753    75.0
 205    9:10   61.1    86    5.0   209      7.2   993.6    0.00     780    74.9
 205    9:20   61.1    86    4.8   212      7.2   993.6    0.00     806    74.9
 205    9:30   61.2    86    4.7   208      7.7   993.6    0.00     831    74.9

Return to Whale Point graphs page.


Western Regional Climate Center,wrcc@dri.edu